Amboy, IN

3:41 PM EDT on September 01, 2015 (GMT -0400)
Vincent Farms - Amboy, IN | | Change Station
CLOSE
Current Station
Personal Weather Station
Location: Amboy, IN
Elevation: 833 ft
Nearby Weather Stations

Elev 833 ft 40.59 °N, 85.98 °W | Updated 1 minute ago

Partly Cloudy
Partly Cloudy
84.4 °F
Feels Like 89 °F
N
13.0
Wind Variable Wind from WSW
Gusts 18.0 mph

Today
High -- | Low -- °F
--% Chance of Precip.
Yesterday
High -- | Low -- °F
Precip. -- in
7:10 AM 8:16 PM
Waning Gibbous, 87% visible
Pressure 30.08 in
Visibility 10.0 miles
Clouds Few 4200 ft
Scattered Clouds 4900 ft
Heat Index 89 °F
Dew Point 71 °F
Humidity 64%
Rainfall 0.00 in
Snow Depth Not available.
UV 5.4 out of 12
Pollen 10.20 out of 12
Air Quality Not available.
Flu Activity Not available.
METAR KOKK 011935Z AUTO 18008KT 10SM FEW042 SCT049 28/21 A3008 RMK AO1
Pressure 30.08 in
Visibility 10.0 miles
Clouds Few 4200 ft
Scattered Clouds 4900 ft
Heat Index 89 °F
Dew Point 71 °F
Humidity 64%
Rainfall 0.00 in
Snow Depth Not available.
UV 5.4 out of 12
Pollen 10.20 out of 12
Air Quality Not available.
Flu Activity Not available.
METAR KOKK 011935Z AUTO 18008KT 10SM FEW042 SCT049 28/21 A3008 RMK AO1

10-Day Weather Forecast

×

Almanac

Astronomy

Sep. 01, 2015 Rise Set
Actual Time
Civil Twilight
Nautical Twilight
Astronomical Twilight
Moon
Length of Visible Light
Length of Day
Tomorrow will be .
, % of the Moon is Illuminated

Today's Extremes

State Highs State Lows

Community

WunderPhotos

Upload Photos

1,851,597 photos uploaded!

WunderBlogs® & News

Nearby

Air Quality

  Air Quality AQ Index Pollutant
Not available.

Snow Depth

Station Depth Elevation

Earthquake Activity

City Distance Mag. Time & Date
Minimum magnitude displayed is 2.5.

Coastal Water Temperatures

Place Temperature

Stations

Nearby Weather Stations

Station Location Temp. Windchill Dew Point Humidity Wind Precip. Elev Updated Type